Airport Name : Lismore

Other Name : Lismore

ICAO : YLIS

IATA : LSY

FAA :

Latitude : -28.830278

Longitude : 153.26

Country : Australia

Local Date and Time : 5/25/2018 8:57:00 PM

 

TAF (Terminal Aerodrome Forecast)

 

METAR (METeorological Aerodrome Report)

YLIS 251000Z AUTO 00000KT 9999 // SCT035 SCT041 BKN050 16/15 Q1027

YLIS 250900Z AUTO 00000KT 9999 // SCT039 BKN045 OVC064 16/15 Q1026

YLIS 250800Z AUTO 17002KT 9999 // SCT019 BKN047 BKN055 16/15 Q1025

YLIS 250721Z AUTO 21009KT 9000 // SCT015 SCT024 BKN036 16/15 Q1025

YLIS 250704Z AUTO 21008KT 5000 // SCT015 SCT019 BKN027 16/15 Q1025

YLIS 250700Z AUTO 21007KT 8000 // BKN015 BKN035 BKN048 17/15 Q1025

YLIS 250659Z AUTO 21007KT 8000 // BKN015 BKN035 BKN048 17/15 Q1025